createdAt,value
2017-09-24T00:00:40.049Z,10.30
2017-09-24T00:01:35.011Z,10.26
2017-09-24T00:02:35.025Z,10.27
2017-09-24T00:03:29.069Z,10.25
2017-09-24T00:04:29.078Z,10.28
2017-09-24T00:05:24.156Z,10.36
2017-09-24T00:06:19.168Z,10.41
2017-09-24T00:07:19.172Z,10.42
2017-09-24T00:08:14.242Z,10.44
2017-09-24T00:09:09.543Z,10.42
2017-09-24T00:10:10.271Z,10.41
2017-09-24T00:11:10.336Z,10.38
2017-09-24T00:12:10.366Z,10.34
2017-09-24T00:13:05.371Z,10.30
2017-09-24T00:13:59.581Z,10.26
2017-09-24T00:15:00.441Z,10.23
2017-09-24T00:16:00.475Z,10.25
2017-09-24T00:17:00.476Z,10.25
2017-09-24T00:17:55.602Z,10.28
2017-09-24T00:18:49.673Z,10.36
2017-09-24T00:19:49.625Z,10.44
2017-09-24T00:20:44.641Z,10.48
2017-09-24T00:21:39.652Z,10.51
2017-09-24T00:22:45.671Z,10.52
2017-09-24T00:23:39.839Z,10.51
2017-09-24T00:24:40.772Z,10.54
2017-09-24T00:25:40.771Z,10.60
2017-09-24T00:26:40.965Z,10.58
2017-09-24T00:27:35.849Z,10.58
2017-09-24T00:28:29.861Z,10.59
2017-09-24T00:29:29.865Z,10.58
2017-09-24T00:30:24.965Z,10.59
2017-09-24T00:31:24.966Z,10.58
2017-09-24T00:32:18.992Z,10.60
2017-09-24T00:33:19.021Z,10.60
2017-09-24T00:34:19.065Z,10.64
2017-09-24T00:35:20.157Z,10.64
2017-09-24T00:36:20.145Z,10.62
2017-09-24T00:37:20.157Z,10.66
2017-09-24T00:38:20.170Z,10.66
2017-09-24T00:39:26.239Z,10.66
2017-09-24T00:40:21.250Z,10.68
2017-09-24T00:41:21.269Z,10.66
2017-09-24T00:42:15.279Z,10.66
2017-09-24T00:43:15.344Z,10.68
2017-09-24T00:44:10.358Z,10.68
2017-09-24T00:45:05.381Z,10.70
2017-09-24T00:46:05.450Z,10.74
2017-09-24T00:47:00.468Z,10.79
2017-09-24T00:47:55.494Z,10.82
2017-09-24T00:48:55.545Z,10.82
2017-09-24T00:49:50.557Z,10.88
2017-09-24T00:50:45.608Z,10.91
2017-09-24T00:51:51.766Z,10.92
2017-09-24T00:52:51.651Z,10.93
2017-09-24T00:53:51.665Z,10.92
2017-09-24T00:54:45.713Z,10.94
2017-09-24T00:55:45.749Z,10.96
2017-09-24T00:56:45.761Z,10.96
2017-09-24T00:57:40.792Z,10.97
2017-09-24T00:58:34.843Z,10.96
2017-09-24T00:59:34.865Z,11.00
2017-09-24T01:00:29.879Z,11.03
2017-09-24T01:01:24.941Z,11.04
2017-09-24T01:02:25.962Z,11.06
2017-09-24T01:03:26.982Z,11.05
2017-09-24T01:04:27.227Z,11.07
2017-09-24T01:05:28.024Z,11.08
2017-09-24T01:06:29.060Z,11.10
2017-09-24T01:07:23.123Z,11.13
2017-09-24T01:08:24.152Z,11.13
2017-09-24T01:09:24.225Z,11.18
2017-09-24T01:10:19.177Z,11.19
2017-09-24T01:11:19.241Z,11.20
2017-09-24T01:12:13.277Z,11.19
2017-09-24T01:13:13.277Z,11.22
2017-09-24T01:14:08.358Z,11.23
2017-09-24T01:15:03.370Z,11.24
2017-09-24T01:16:03.371Z,11.24
2017-09-24T01:16:58.454Z,11.22
2017-09-24T01:17:53.458Z,11.23
2017-09-24T01:18:53.731Z,11.22
2017-09-24T01:19:48.538Z,11.22
2017-09-24T01:20:43.560Z,11.22
2017-09-24T01:21:44.572Z,11.22
2017-09-24T01:22:44.593Z,11.25
2017-09-24T01:23:44.932Z,11.23
2017-09-24T01:24:39.670Z,11.28
2017-09-24T01:25:33.685Z,11.28
2017-09-24T01:26:33.776Z,11.24
2017-09-24T01:27:28.770Z,11.22
2017-09-24T01:28:28.831Z,11.23
2017-09-24T01:29:28.851Z,11.28
2017-09-24T01:30:28.860Z,11.29
2017-09-24T01:31:22.880Z,11.29
2017-09-24T01:32:23.955Z,11.32
2017-09-24T01:33:24.970Z,11.28
2017-09-24T01:34:19.984Z,11.32
2017-09-24T01:35:14.045Z,11.30
2017-09-24T01:36:14.060Z,11.30
2017-09-24T01:37:09.126Z,11.31
2017-09-24T01:38:09.153Z,11.30
2017-09-24T01:39:03.384Z,11.27
2017-09-24T01:40:03.194Z,11.29
2017-09-24T01:40:58.227Z,11.28
2017-09-24T01:41:53.247Z,11.28
2017-09-24T01:42:53.261Z,11.27
2017-09-24T01:43:48.442Z,11.26
2017-09-24T01:44:43.359Z,11.30
2017-09-24T01:45:43.370Z,11.32
2017-09-24T01:46:38.435Z,11.36
2017-09-24T01:47:38.443Z,11.37
2017-09-24T01:48:38.606Z,11.32
2017-09-24T01:49:38.493Z,11.32
2017-09-24T01:50:32.545Z,11.29
2017-09-24T01:51:33.558Z,11.28
2017-09-24T01:52:33.593Z,11.27
2017-09-24T01:53:28.722Z,11.26
2017-09-24T01:54:28.917Z,11.26
2017-09-24T01:55:22.749Z,11.28
2017-09-24T01:56:23.758Z,11.30
2017-09-24T01:57:23.760Z,11.30
2017-09-24T01:58:18.822Z,11.29
2017-09-24T01:59:18.846Z,11.31
2017-09-24T02:00:12.873Z,11.30
2017-09-24T02:01:13.960Z,11.31
2017-09-24T02:02:14.947Z,11.27
2017-09-24T02:03:09.956Z,11.26
2017-09-24T02:04:09.963Z,11.24
2017-09-24T02:05:10.033Z,11.21
2017-09-24T02:06:04.055Z,11.16
2017-09-24T02:07:04.068Z,11.13
2017-09-24T02:08:04.082Z,11.09
2017-09-24T02:09:04.419Z,11.00
2017-09-24T02:10:04.173Z,10.97
2017-09-24T02:11:04.193Z,10.94
2017-09-24T02:12:05.268Z,10.92
2017-09-24T02:13:06.541Z,10.86
2017-09-24T02:14:06.502Z,10.86
2017-09-24T02:15:06.339Z,10.84
2017-09-24T02:16:00.363Z,10.83
2017-09-24T02:17:00.371Z,10.80
2017-09-24T02:17:55.467Z,10.82
2017-09-24T02:18:55.467Z,10.83
2017-09-24T02:19:55.515Z,10.83
2017-09-24T02:20:55.508Z,10.82
2017-09-24T02:21:49.552Z,10.81
2017-09-24T02:22:50.589Z,10.80
2017-09-24T02:23:50.722Z,10.80
2017-09-24T02:24:45.648Z,10.80
2017-09-24T02:25:45.667Z,10.80
2017-09-24T02:26:39.680Z,10.76
2017-09-24T02:27:40.737Z,10.72
2017-09-24T02:28:40.763Z,10.66
2017-09-24T02:29:35.787Z,10.65
2017-09-24T02:30:35.834Z,10.58
2017-09-24T02:31:35.857Z,10.57
2017-09-24T02:32:35.871Z,10.58
2017-09-24T02:33:29.934Z,10.58
2017-09-24T02:34:29.972Z,10.58
2017-09-24T02:35:25.044Z,10.56
2017-09-24T02:36:30.982Z,10.56
2017-09-24T02:37:26.058Z,10.56
2017-09-24T02:38:20.165Z,10.51
2017-09-24T02:39:20.098Z,10.54
2017-09-24T02:40:20.324Z,10.55
2017-09-24T02:41:15.178Z,10.56
2017-09-24T02:42:09.182Z,10.52
2017-09-24T02:43:09.248Z,10.56
2017-09-24T02:44:04.586Z,10.54
2017-09-24T02:44:59.271Z,10.60
2017-09-24T02:46:00.332Z,10.64
2017-09-24T02:47:00.355Z,10.64
2017-09-24T02:48:00.434Z,10.68
2017-09-24T02:48:55.512Z,10.69
2017-09-24T02:49:49.454Z,10.73
2017-09-24T02:50:49.468Z,10.82
2017-09-24T02:51:44.527Z,10.82
2017-09-24T02:52:50.564Z,10.80
2017-09-24T02:53:45.834Z,10.79
2017-09-24T02:54:39.621Z,10.84
2017-09-24T02:55:39.649Z,10.81
2017-09-24T02:56:39.672Z,10.87
2017-09-24T02:57:34.674Z,10.95
2017-09-24T02:58:28.778Z,10.96
2017-09-24T02:59:29.044Z,10.99
2017-09-24T03:00:23.778Z,10.97
2017-09-24T03:01:18.842Z,10.99
2017-09-24T03:02:24.864Z,11.02
2017-09-24T03:03:24.870Z,11.03
2017-09-24T03:04:25.036Z,11.06
2017-09-24T03:05:18.944Z,11.07
2017-09-24T03:06:20.049Z,11.09
2017-09-24T03:07:15.021Z,11.10
2017-09-24T03:08:09.021Z,11.08
2017-09-24T03:09:09.346Z,11.09
2017-09-24T03:10:04.158Z,11.10
2017-09-24T03:11:10.147Z,11.12
2017-09-24T03:12:05.167Z,11.14
2017-09-24T03:12:59.193Z,11.16
2017-09-24T03:14:00.274Z,11.15
2017-09-24T03:14:55.266Z,11.19
2017-09-24T03:15:49.281Z,11.20
2017-09-24T03:16:49.344Z,11.24
2017-09-24T03:17:44.364Z,11.26
2017-09-24T03:18:44.380Z,11.29
2017-09-24T03:19:38.439Z,11.31
2017-09-24T03:20:38.464Z,11.32
2017-09-24T03:21:33.491Z,11.34
2017-09-24T03:22:28.538Z,11.34
2017-09-24T03:23:29.536Z,11.32
2017-09-24T03:24:30.578Z,11.34
2017-09-24T03:25:25.768Z,11.35
2017-09-24T03:26:19.665Z,11.37
2017-09-24T03:27:19.760Z,11.38
2017-09-24T03:28:14.896Z,11.36
2017-09-24T03:29:14.754Z,11.37
2017-09-24T03:30:14.775Z,11.37
2017-09-24T03:31:20.777Z,11.38
2017-09-24T03:32:15.838Z,11.38
2017-09-24T03:33:15.867Z,11.37
2017-09-24T03:34:10.880Z,11.35
2017-09-24T03:35:10.934Z,11.36
2017-09-24T03:36:10.960Z,11.37
2017-09-24T03:37:11.207Z,11.38
2017-09-24T03:38:05.022Z,11.40
2017-09-24T03:39:05.085Z,11.41
2017-09-24T03:40:00.076Z,11.41
2017-09-24T03:41:00.132Z,11.41
2017-09-24T03:42:00.152Z,11.41
2017-09-24T03:43:06.230Z,11.40
2017-09-24T03:44:01.180Z,11.39
2017-09-24T03:45:01.528Z,11.43
2017-09-24T03:45:56.271Z,11.42
2017-09-24T03:46:51.275Z,11.43
2017-09-24T03:47:51.346Z,11.43
2017-09-24T03:48:46.553Z,11.40
2017-09-24T03:49:46.377Z,11.40
2017-09-24T03:50:46.443Z,11.40
2017-09-24T03:51:46.453Z,11.40
2017-09-24T03:52:40.475Z,11.40
2017-09-24T03:53:40.508Z,11.40
2017-09-24T03:54:35.555Z,11.41
2017-09-24T03:55:30.657Z,11.40
2017-09-24T03:56:36.585Z,11.38
2017-09-24T03:57:30.649Z,11.38
2017-09-24T03:58:30.697Z,11.39
2017-09-24T03:59:25.679Z,11.38
2017-09-24T04:00:25.747Z,11.36
2017-09-24T04:01:19.765Z,11.36
2017-09-24T04:02:19.858Z,11.38
2017-09-24T04:03:14.843Z,11.39
2017-09-24T04:04:09.819Z,11.38
2017-09-24T04:05:10.880Z,11.38
2017-09-24T04:06:11.936Z,11.39
2017-09-24T04:07:12.211Z,11.40
2017-09-24T04:08:12.977Z,11.40
2017-09-24T04:09:14.013Z,11.40
2017-09-24T04:10:08.052Z,11.41
2017-09-24T04:11:08.108Z,11.42
2017-09-24T04:12:03.134Z,11.48
2017-09-24T04:12:58.150Z,11.46
2017-09-24T04:14:04.173Z,11.43
2017-09-24T04:14:58.183Z,11.42
2017-09-24T04:15:58.251Z,11.40
2017-09-24T04:16:53.264Z,11.39
2017-09-24T04:17:53.283Z,11.40
2017-09-24T04:18:47.621Z,11.40
2017-09-24T04:19:47.429Z,11.42
2017-09-24T04:20:42.375Z,11.40
2017-09-24T04:21:37.439Z,11.37
2017-09-24T04:22:37.468Z,11.36
2017-09-24T04:23:32.617Z,11.34
2017-09-24T04:24:27.638Z,11.36
2017-09-24T04:25:27.565Z,11.38
2017-09-24T04:26:22.577Z,11.38
2017-09-24T04:27:17.585Z,11.40
2017-09-24T04:28:18.658Z,11.41
2017-09-24T04:29:18.682Z,11.40
2017-09-24T04:30:18.725Z,11.41
2017-09-24T04:31:13.757Z,11.40
2017-09-24T04:32:07.928Z,11.42
2017-09-24T04:33:07.827Z,11.40
2017-09-24T04:34:02.960Z,11.41
2017-09-24T04:35:02.871Z,11.42
2017-09-24T04:35:56.926Z,11.40
2017-09-24T04:36:56.969Z,11.41
2017-09-24T04:37:51.979Z,11.42
2017-09-24T04:38:47.220Z,11.40
2017-09-24T04:39:47.033Z,11.43
2017-09-24T04:40:42.067Z,11.44
2017-09-24T04:41:37.157Z,11.41
2017-09-24T04:42:43.159Z,11.42
2017-09-24T04:43:37.167Z,11.40
2017-09-24T04:44:37.191Z,11.42
2017-09-24T04:45:32.254Z,11.40
2017-09-24T04:46:32.262Z,11.40
2017-09-24T04:47:26.284Z,11.40
2017-09-24T04:48:26.350Z,11.35
2017-09-24T04:49:21.368Z,11.38
2017-09-24T04:50:16.382Z,11.39
2017-09-24T04:51:16.445Z,11.40
2017-09-24T04:52:11.468Z,11.40
2017-09-24T04:53:06.483Z,11.41
2017-09-24T04:54:06.601Z,11.41
2017-09-24T04:55:01.557Z,11.42
2017-09-24T04:55:56.570Z,11.42
2017-09-24T04:57:02.878Z,11.41
2017-09-24T04:57:56.846Z,11.40
2017-09-24T04:58:56.760Z,11.39
2017-09-24T04:59:51.831Z,11.42
2017-09-24T05:00:51.756Z,11.41
2017-09-24T05:01:51.785Z,11.42
2017-09-24T05:02:57.834Z,11.40
2017-09-24T05:03:57.858Z,11.42
2017-09-24T05:04:58.892Z,11.42
2017-09-24T05:05:52.881Z,11.40
2017-09-24T05:06:52.965Z,11.40
2017-09-24T05:07:47.967Z,11.40
2017-09-24T05:08:42.980Z,11.40
2017-09-24T05:09:49.023Z,11.37
2017-09-24T05:10:43.083Z,11.36
2017-09-24T05:11:44.079Z,11.38
2017-09-24T05:12:44.111Z,11.42
2017-09-24T05:13:44.173Z,11.41
2017-09-24T05:14:44.191Z,11.42
2017-09-24T05:15:44.236Z,11.45
2017-09-24T05:16:44.256Z,11.47
2017-09-24T05:17:44.274Z,11.50
2017-09-24T05:18:44.284Z,11.52
2017-09-24T05:19:44.353Z,11.51
2017-09-24T05:20:44.372Z,11.52
2017-09-24T05:21:44.519Z,11.52
2017-09-24T05:22:44.459Z,11.52
2017-09-24T05:23:44.468Z,11.50
2017-09-24T05:24:44.472Z,11.50
2017-09-24T05:25:33.531Z,11.50
2017-09-24T05:26:27.570Z,11.54
2017-09-24T05:27:22.681Z,11.55
2017-09-24T05:28:11.669Z,11.58
2017-09-24T05:29:05.681Z,11.57
2017-09-24T05:30:05.729Z,11.54
2017-09-24T05:31:05.758Z,11.49
2017-09-24T05:32:05.769Z,11.50
2017-09-24T05:33:05.832Z,11.50
2017-09-24T05:34:05.852Z,11.50
2017-09-24T05:34:54.875Z,11.52
2017-09-24T05:35:42.949Z,11.48
2017-09-24T05:36:30.962Z,11.46
2017-09-24T05:37:19.013Z,11.46
2017-09-24T05:38:08.036Z,11.46
2017-09-24T05:38:56.081Z,11.45
2017-09-24T05:39:50.137Z,11.48
2017-09-24T05:40:38.166Z,11.51
2017-09-24T05:41:38.180Z,11.48
2017-09-24T05:42:26.257Z,11.51
2017-09-24T05:43:14.343Z,11.49
2017-09-24T05:44:14.333Z,11.54
2017-09-24T05:45:02.599Z,11.46
2017-09-24T05:45:51.381Z,11.50
2017-09-24T05:46:51.444Z,11.51
2017-09-24T05:47:45.466Z,11.50
2017-09-24T05:48:39.493Z,11.46
2017-09-24T05:49:28.552Z,11.48
2017-09-24T05:50:28.562Z,11.54
2017-09-24T05:51:22.629Z,11.51
2017-09-24T05:52:10.656Z,11.50
2017-09-24T05:53:10.701Z,11.44
2017-09-24T05:54:05.757Z,11.43
2017-09-24T05:55:05.759Z,11.46
2017-09-24T05:56:05.772Z,11.48
2017-09-24T05:57:05.785Z,11.48
2017-09-24T05:58:05.850Z,11.42
2017-09-24T05:59:05.961Z,11.50
2017-09-24T05:59:59.929Z,11.50
2017-09-24T06:01:00.230Z,11.50
2017-09-24T06:01:54.975Z,11.52
2017-09-24T06:02:50.037Z,11.54
2017-09-24T06:03:44.060Z,11.47
2017-09-24T06:04:44.172Z,11.52
2017-09-24T06:05:39.088Z,11.50
2017-09-24T06:06:34.152Z,11.48
2017-09-24T06:07:34.156Z,11.52
2017-09-24T06:08:29.163Z,11.50
2017-09-24T06:09:24.246Z,11.52
2017-09-24T06:10:18.262Z,11.57
2017-09-24T06:11:19.547Z,11.50
2017-09-24T06:12:14.368Z,11.54
2017-09-24T06:13:14.363Z,11.59
2017-09-24T06:14:14.423Z,11.56
2017-09-24T06:15:14.446Z,11.60
2017-09-24T06:16:14.463Z,11.58
2017-09-24T06:17:14.561Z,11.56
2017-09-24T06:18:14.528Z,11.57
2017-09-24T06:19:14.600Z,11.64
2017-09-24T06:20:14.627Z,11.62
2017-09-24T06:21:14.658Z,11.68
2017-09-24T06:22:14.667Z,11.68
2017-09-24T06:23:14.687Z,11.66
2017-09-24T06:24:14.752Z,11.67
2017-09-24T06:25:14.767Z,11.75
2017-09-24T06:26:14.774Z,11.73
2017-09-24T06:27:14.842Z,11.72
2017-09-24T06:28:14.863Z,11.74
2017-09-24T06:29:14.964Z,11.79
2017-09-24T06:30:14.941Z,11.76
2017-09-24T06:31:14.958Z,11.81
2017-09-24T06:32:14.976Z,11.79
2017-09-24T06:33:09.049Z,11.82
2017-09-24T06:34:09.058Z,11.76
2017-09-24T06:35:04.170Z,11.81
2017-09-24T06:35:59.346Z,11.77
2017-09-24T06:36:53.163Z,11.81
2017-09-24T06:37:53.172Z,11.79
2017-09-24T06:38:48.237Z,11.79
2017-09-24T06:39:43.271Z,11.78
2017-09-24T06:40:44.289Z,11.84
2017-09-24T06:41:44.357Z,11.89
2017-09-24T06:42:39.362Z,11.87
2017-09-24T06:43:34.382Z,11.90
2017-09-24T06:44:34.459Z,11.96
2017-09-24T06:45:28.474Z,11.96
2017-09-24T06:46:28.543Z,11.90
2017-09-24T06:47:28.553Z,11.93
2017-09-24T06:48:29.016Z,11.91
2017-09-24T06:49:28.628Z,11.98
2017-09-24T06:50:22.654Z,11.98
2017-09-24T06:51:22.676Z,11.90
2017-09-24T06:52:17.758Z,11.94
2017-09-24T06:53:12.756Z,11.92
2017-09-24T06:54:01.784Z,11.86
2017-09-24T06:54:57.019Z,11.88
2017-09-24T06:55:50.866Z,11.89
2017-09-24T06:56:39.930Z,11.89
2017-09-24T06:57:33.963Z,11.90
2017-09-24T06:58:29.431Z,11.89
2017-09-24T06:59:24.041Z,11.91
2017-09-24T07:00:19.227Z,11.87
2017-09-24T07:01:13.079Z,11.90
2017-09-24T07:02:07.157Z,11.92
2017-09-24T07:02:56.181Z,11.92
2017-09-24T07:03:51.234Z,11.96
2017-09-24T07:04:51.256Z,11.96
2017-09-24T07:05:51.273Z,11.99
2017-09-24T07:06:51.336Z,12.01
2017-09-24T07:07:51.357Z,12.03
2017-09-24T07:08:51.446Z,12.08
2017-09-24T07:09:51.438Z,12.16
2017-09-24T07:10:51.519Z,12.22
2017-09-24T07:11:51.476Z,12.30
2017-09-24T07:12:51.492Z,12.33
2017-09-24T07:13:51.552Z,12.34
2017-09-24T07:14:40.619Z,12.33
2017-09-24T07:15:40.652Z,12.30
2017-09-24T07:16:41.664Z,12.36
2017-09-24T07:17:42.682Z,12.41
2017-09-24T07:18:42.747Z,12.38
2017-09-24T07:19:37.764Z,12.40
2017-09-24T07:20:37.792Z,12.42
2017-09-24T07:21:32.854Z,12.48
2017-09-24T07:22:27.877Z,12.56
2017-09-24T07:23:21.932Z,12.56
2017-09-24T07:24:22.964Z,12.70
2017-09-24T07:25:23.070Z,12.76
2017-09-24T07:26:17.992Z,12.83
2017-09-24T07:27:18.127Z,12.96
2017-09-24T07:28:18.102Z,13.02
2017-09-24T07:29:18.093Z,13.08
2017-09-24T07:30:12.293Z,13.10
2017-09-24T07:31:12.185Z,12.98
2017-09-24T07:32:01.253Z,12.96
2017-09-24T07:32:50.278Z,13.01
2017-09-24T07:33:38.350Z,13.03
2017-09-24T07:34:26.373Z,13.08
2017-09-24T07:35:27.433Z,13.06
2017-09-24T07:36:27.452Z,13.13
2017-09-24T07:37:27.473Z,13.20
2017-09-24T07:38:21.522Z,13.24
2017-09-24T07:39:21.565Z,13.40
2017-09-24T07:40:16.578Z,13.38
2017-09-24T07:41:11.890Z,13.30
2017-09-24T07:42:05.675Z,13.30
2017-09-24T07:43:05.734Z,13.28
2017-09-24T07:43:53.826Z,13.28
2017-09-24T07:44:47.817Z,13.26
2017-09-24T07:45:36.857Z,13.30
2017-09-24T07:46:30.909Z,13.38
2017-09-24T07:47:25.952Z,13.38
2017-09-24T07:48:26.247Z,13.32
2017-09-24T07:49:21.044Z,13.26
2017-09-24T07:50:15.059Z,13.30
2017-09-24T07:51:15.069Z,13.28
2017-09-24T07:52:09.288Z,13.34
2017-09-24T07:53:03.163Z,13.42
2017-09-24T07:53:57.182Z,13.48
2017-09-24T07:54:45.260Z,13.61
2017-09-24T07:55:34.355Z,13.68
2017-09-24T07:56:29.346Z,13.50
2017-09-24T07:57:29.371Z,13.49
2017-09-24T07:58:24.430Z,13.46
2017-09-24T07:59:12.464Z,13.43
2017-09-24T08:00:06.599Z,13.52
2017-09-24T08:01:06.528Z,13.47
2017-09-24T08:02:01.573Z,13.54
2017-09-24T08:02:56.779Z,13.67
2017-09-24T08:03:50.663Z,13.69
2017-09-24T08:04:38.862Z,13.80
2017-09-24T08:05:26.805Z,13.85
2017-09-24T08:06:27.785Z,13.75
2017-09-24T08:07:27.797Z,13.77
2017-09-24T08:08:16.873Z,13.83
2017-09-24T08:09:10.981Z,13.90
2017-09-24T08:09:59.966Z,13.97
2017-09-24T08:10:54.988Z,13.98
2017-09-24T08:11:49.061Z,13.90
2017-09-24T08:12:38.177Z,13.96
2017-09-24T08:13:26.194Z,13.91
2017-09-24T08:14:14.335Z,14.02
2017-09-24T08:15:02.261Z,14.03
2017-09-24T08:15:51.290Z,14.02
2017-09-24T08:16:46.539Z,13.88
2017-09-24T08:17:47.412Z,13.96
2017-09-24T08:18:35.425Z,14.06
2017-09-24T08:19:24.464Z,14.16
2017-09-24T08:20:18.598Z,14.26
2017-09-24T08:21:12.549Z,14.28
2017-09-24T08:22:00.582Z,14.35
2017-09-24T08:22:54.637Z,14.46
2017-09-24T08:23:43.668Z,14.54
2017-09-24T08:24:37.689Z,14.50
2017-09-24T08:25:38.757Z,14.34
2017-09-24T08:26:32.833Z,14.32
2017-09-24T08:27:26.859Z,14.48
2017-09-24T08:28:27.042Z,14.58
2017-09-24T08:29:20.961Z,14.62
2017-09-24T08:30:21.022Z,14.63
2017-09-24T08:31:16.075Z,14.60
2017-09-24T08:32:10.165Z,14.57
2017-09-24T08:33:10.203Z,14.61
2017-09-24T08:34:05.181Z,14.70
2017-09-24T08:35:00.261Z,14.86
2017-09-24T08:36:00.365Z,15.00
2017-09-24T08:36:55.499Z,14.92
2017-09-24T08:37:49.358Z,15.05
2017-09-24T08:38:49.409Z,15.17
2017-09-24T08:39:38.532Z,15.28
2017-09-24T08:40:32.501Z,15.35
2017-09-24T08:41:38.557Z,15.45
2017-09-24T08:42:33.549Z,15.48
2017-09-24T08:43:27.825Z,15.64
2017-09-24T08:44:22.575Z,15.94
2017-09-24T08:45:22.759Z,16.08
2017-09-24T08:46:22.876Z,15.97
2017-09-24T08:47:22.770Z,15.89
2017-09-24T08:48:17.843Z,15.98
2017-09-24T08:49:17.861Z,16.12
2017-09-24T08:50:12.922Z,16.03
2017-09-24T08:51:06.940Z,16.06
2017-09-24T08:52:02.019Z,16.16
2017-09-24T08:53:02.116Z,16.34
2017-09-24T08:54:02.190Z,16.59
2017-09-24T08:55:02.122Z,16.73
2017-09-24T08:56:02.226Z,16.96
2017-09-24T08:57:02.193Z,17.03
2017-09-24T08:57:50.384Z,17.09
2017-09-24T08:58:44.349Z,16.96
2017-09-24T08:59:38.495Z,16.66
2017-09-24T09:00:32.401Z,16.68
2017-09-24T09:01:20.511Z,16.69
2017-09-24T09:02:09.601Z,16.50
2017-09-24T09:03:03.614Z,16.20
2017-09-24T09:03:52.671Z,15.93
2017-09-24T09:04:41.679Z,15.56
2017-09-24T09:05:35.759Z,15.22
2017-09-24T09:06:35.886Z,14.84
2017-09-24T09:07:29.867Z,14.91
2017-09-24T09:08:29.999Z,14.92
2017-09-24T09:09:23.769Z,14.72
2017-09-24T09:10:18.873Z,14.32
2017-09-24T09:11:19.858Z,14.22
2017-09-24T09:12:15.139Z,14.00
2017-09-24T09:13:08.950Z,13.78
2017-09-24T09:14:03.013Z,13.78
2017-09-24T09:14:57.997Z,13.72
2017-09-24T09:15:47.079Z,13.78
2017-09-24T09:16:41.098Z,13.77
2017-09-24T09:17:35.449Z,13.86
2017-09-24T09:18:29.532Z,13.82
2017-09-24T09:19:30.264Z,13.72
2017-09-24T09:20:30.291Z,13.61
2017-09-24T09:21:25.363Z,13.52
2017-09-24T09:22:14.383Z,13.50
2017-09-24T09:23:09.482Z,13.56
2017-09-24T09:24:09.479Z,13.54
2017-09-24T09:25:03.660Z,13.66
2017-09-24T09:26:04.569Z,13.82
2017-09-24T09:26:58.831Z,13.94
2017-09-24T09:27:47.856Z,14.24
2017-09-24T09:28:42.753Z,14.40
2017-09-24T09:29:31.019Z,14.64
2017-09-24T09:30:24.852Z,14.70
2017-09-24T09:31:13.870Z,14.97
2017-09-24T09:32:03.112Z,15.21
2017-09-24T09:33:02.966Z,15.51
2017-09-24T09:33:57.044Z,15.74
2017-09-24T09:34:52.071Z,16.26
2017-09-24T09:35:47.085Z,16.40
2017-09-24T09:36:35.173Z,16.43
2017-09-24T09:37:30.236Z,16.54
2017-09-24T09:38:25.267Z,16.40
2017-09-24T09:39:19.544Z,16.38
2017-09-24T09:40:14.387Z,16.99
2017-09-24T09:41:08.437Z,17.29
2017-09-24T09:42:02.522Z,17.49
2017-09-24T09:42:57.598Z,16.98
2017-09-24T09:43:51.694Z,16.76
2017-09-24T09:44:45.586Z,16.98
2017-09-24T09:45:40.829Z,16.96
2017-09-24T09:46:29.740Z,16.95
2017-09-24T09:47:17.862Z,17.20
2017-09-24T09:48:12.051Z,16.93
2017-09-24T09:49:06.878Z,16.86
2017-09-24T09:50:07.115Z,16.58
2017-09-24T09:51:07.179Z,16.38
2017-09-24T09:52:01.241Z,16.16
2017-09-24T09:52:55.319Z,16.70
2017-09-24T09:53:50.329Z,17.06
2017-09-24T09:54:39.369Z,17.47
2017-09-24T09:55:28.340Z,18.23
2017-09-24T09:56:16.517Z,19.22
2017-09-24T09:57:10.464Z,19.95
2017-09-24T09:58:04.633Z,20.56
2017-09-24T09:58:58.566Z,20.88
2017-09-24T09:59:52.648Z,21.02
2017-09-24T10:00:47.726Z,20.86
2017-09-24T10:01:48.767Z,20.88
2017-09-24T10:02:48.814Z,20.88
2017-09-24T10:03:42.891Z,20.82
2017-09-24T10:04:42.915Z,20.59
2017-09-24T10:05:36.935Z,20.44
2017-09-24T10:06:31.034Z,20.75
2017-09-24T10:07:19.085Z,21.18
2017-09-24T10:08:07.107Z,21.73
2017-09-24T10:09:07.200Z,21.96
2017-09-24T10:10:01.212Z,22.18
2017-09-24T10:10:56.298Z,22.37
2017-09-24T10:11:50.410Z,22.62
2017-09-24T10:12:44.398Z,22.51
2017-09-24T10:13:39.461Z,22.84
2017-09-24T10:14:39.501Z,23.00
2017-09-24T10:15:33.567Z,23.25
2017-09-24T10:16:34.577Z,22.78
2017-09-24T10:17:34.677Z,22.47
2017-09-24T10:18:23.704Z,22.22
2017-09-24T10:19:17.779Z,22.50
2017-09-24T10:20:11.795Z,22.37
2017-09-24T10:20:59.849Z,22.38
2017-09-24T10:21:54.854Z,22.32
2017-09-24T10:22:49.842Z,22.10
2017-09-24T10:23:44.032Z,22.28
2017-09-24T10:24:39.037Z,22.30
2017-09-24T10:25:28.053Z,22.12
2017-09-24T10:26:29.184Z,22.32
2017-09-24T10:27:24.023Z,22.60
2017-09-24T10:28:18.316Z,22.87
2017-09-24T10:29:13.341Z,23.05
2017-09-24T10:30:13.173Z,22.32
2017-09-24T10:31:02.451Z,22.10
2017-09-24T10:31:56.535Z,22.32
2017-09-24T10:32:51.588Z,22.41
2017-09-24T10:33:39.610Z,22.57
2017-09-24T10:34:33.688Z,22.60
2017-09-24T10:35:27.754Z,22.66
2017-09-24T10:36:16.824Z,22.81
2017-09-24T10:37:05.849Z,22.39
2017-09-24T10:38:05.932Z,22.27
2017-09-24T10:39:00.961Z,22.28
2017-09-24T10:39:54.977Z,22.12
2017-09-24T10:40:49.067Z,21.71
2017-09-24T10:41:43.107Z,21.55
2017-09-24T10:42:38.156Z,21.66
2017-09-24T10:43:38.216Z,21.82
2017-09-24T10:44:26.355Z,21.90
2017-09-24T10:45:21.289Z,22.34
2017-09-24T10:46:15.402Z,22.81
2017-09-24T10:47:10.432Z,23.10
2017-09-24T10:47:59.548Z,23.42
2017-09-24T10:48:54.591Z,23.66
2017-09-24T10:49:48.657Z,23.72
2017-09-24T10:50:42.696Z,22.93
2017-09-24T10:51:31.709Z,23.06
2017-09-24T10:52:19.776Z,23.58
2017-09-24T10:53:19.846Z,24.22
2017-09-24T10:54:07.838Z,24.55
2017-09-24T10:55:03.001Z,24.83
2017-09-24T10:55:57.032Z,25.02
2017-09-24T10:56:51.032Z,25.18
2017-09-24T10:57:40.193Z,25.38
2017-09-24T10:58:34.465Z,25.63
2017-09-24T10:59:29.296Z,25.55
2017-09-24T11:00:18.415Z,25.52
2017-09-24T11:01:18.391Z,25.54
2017-09-24T11:02:18.471Z,25.71
2017-09-24T11:03:13.542Z,25.79
2017-09-24T11:04:13.598Z,25.89
2017-09-24T11:05:07.709Z,25.71
2017-09-24T11:05:56.784Z,25.42
2017-09-24T11:06:51.826Z,24.94
2017-09-24T11:07:45.823Z,24.47
2017-09-24T11:08:35.150Z,23.71
2017-09-24T11:09:24.012Z,23.86
2017-09-24T11:10:18.053Z,23.67
2017-09-24T11:11:13.121Z,23.91
2017-09-24T11:12:08.196Z,24.24
2017-09-24T11:13:02.223Z,24.40
2017-09-24T11:13:51.232Z,23.83
2017-09-24T11:14:46.315Z,23.24
2017-09-24T11:15:47.374Z,23.24
2017-09-24T11:16:42.598Z,23.34
2017-09-24T11:17:31.505Z,23.32
2017-09-24T11:18:25.585Z,23.15
2017-09-24T11:19:20.620Z,22.30
2017-09-24T11:20:09.633Z,21.71
2017-09-24T11:21:03.739Z,21.02
2017-09-24T11:21:58.812Z,20.56
2017-09-24T11:22:52.839Z,20.15
2017-09-24T11:23:47.904Z,20.18
2017-09-24T11:24:47.970Z,20.64
2017-09-24T11:25:37.040Z,21.16
2017-09-24T11:26:31.083Z,21.80
2017-09-24T11:27:25.127Z,22.08
2017-09-24T11:28:19.197Z,22.34
2017-09-24T11:29:14.210Z,22.70
2017-09-24T11:30:14.283Z,22.97
2017-09-24T11:31:08.316Z,23.18
2017-09-24T11:32:02.409Z,23.73
2017-09-24T11:32:57.510Z,22.99
2017-09-24T11:33:46.260Z,23.04
2017-09-24T11:34:41.382Z,23.40
2017-09-24T11:35:41.534Z,22.92
2017-09-24T11:36:35.674Z,22.96
2017-09-24T11:37:29.486Z,23.02
2017-09-24T11:38:24.809Z,23.29
2017-09-24T11:39:18.797Z,23.66
2017-09-24T11:40:12.900Z,24.07
2017-09-24T11:41:06.911Z,24.58
2017-09-24T11:42:02.008Z,25.01
2017-09-24T11:42:57.076Z,25.46
2017-09-24T11:43:51.089Z,25.70
2017-09-24T11:44:39.152Z,26.25
2017-09-24T11:45:34.253Z,26.60
2017-09-24T11:46:28.322Z,26.75
2017-09-24T11:47:22.377Z,26.41
2017-09-24T11:48:22.476Z,26.26
2017-09-24T11:49:11.596Z,25.60
2017-09-24T11:50:00.594Z,24.53
2017-09-24T11:50:54.669Z,23.79
2017-09-24T11:51:49.677Z,23.17
2017-09-24T11:52:49.734Z,22.47
2017-09-24T11:53:43.804Z,22.42
2017-09-24T11:54:32.863Z,22.55
2017-09-24T11:55:26.864Z,23.07
2017-09-24T11:56:20.968Z,23.22
2017-09-24T11:57:10.044Z,23.16
2017-09-24T11:58:04.854Z,23.58
2017-09-24T11:58:59.039Z,24.14
2017-09-24T11:59:53.195Z,24.08
2017-09-24T12:00:47.268Z,24.10
2017-09-24T12:01:47.069Z,23.78
2017-09-24T12:02:36.255Z,23.31
2017-09-24T12:03:25.163Z,23.50
2017-09-24T12:04:19.459Z,23.80
2017-09-24T12:05:14.497Z,23.19